createdAt,value
2023-10-28T00:04:40.354Z,1.95
2023-10-28T00:09:41.744Z,2.00
2023-10-28T00:14:43.028Z,3.30
2023-10-28T00:19:44.562Z,1.43
2023-10-28T00:24:46.289Z,1.50
2023-10-28T00:29:53.114Z,2.80
2023-10-28T00:34:54.667Z,2.00
2023-10-28T00:39:57.132Z,2.00
2023-10-28T00:44:58.428Z,1.93
2023-10-28T00:49:59.764Z,2.60
2023-10-28T00:55:01.113Z,2.38
2023-10-28T01:00:02.533Z,2.97
2023-10-28T01:05:04.314Z,3.05
2023-10-28T01:10:06.759Z,4.60
2023-10-28T01:15:08.573Z,2.33
2023-10-28T01:20:11.598Z,3.25
2023-10-28T01:25:13.049Z,3.53
2023-10-28T01:30:14.757Z,3.20
2023-10-28T01:35:16.815Z,4.60
2023-10-28T01:40:18.738Z,3.05
2023-10-28T01:45:22.337Z,5.68
2023-10-28T01:50:23.743Z,4.43
2023-10-28T01:55:25.106Z,4.88
2023-10-28T02:00:31.610Z,5.20
2023-10-28T02:05:33.435Z,3.45
2023-10-28T02:10:35.065Z,5.05
2023-10-28T02:15:36.404Z,6.17
2023-10-28T02:20:38.210Z,5.43
2023-10-28T02:25:39.686Z,3.67
2023-10-28T02:30:41.437Z,5.38
2023-10-28T02:35:42.731Z,7.15
2023-10-28T02:40:47.651Z,7.43
2023-10-28T02:45:49.410Z,7.05
2023-10-28T02:50:50.743Z,6.27
2023-10-28T02:55:52.120Z,4.68
2023-10-28T03:00:56.224Z,5.97
2023-10-28T03:05:57.545Z,7.03
2023-10-28T03:10:58.938Z,4.13
2023-10-28T03:16:00.434Z,7.47
2023-10-28T03:21:01.761Z,9.50
2023-10-28T03:26:06.138Z,5.90
2023-10-28T03:31:11.220Z,7.33
2023-10-28T03:36:12.758Z,5.75
2023-10-28T03:41:14.142Z,6.03
2023-10-28T03:46:17.045Z,6.60
2023-10-28T03:51:18.395Z,5.60
2023-10-28T03:56:19.714Z,5.73
2023-10-28T04:01:21.058Z,7.30
2023-10-28T04:06:22.675Z,7.07
2023-10-28T04:11:23.983Z,7.30
2023-10-28T04:16:26.887Z,6.18
2023-10-28T04:21:28.754Z,6.50
2023-10-28T04:26:30.053Z,4.75
2023-10-28T04:31:31.482Z,5.37
2023-10-28T04:36:32.794Z,5.40
2023-10-28T04:41:34.753Z,6.43
2023-10-28T04:46:36.042Z,6.40
2023-10-28T04:51:37.441Z,8.88
2023-10-28T04:56:38.751Z,3.90
2023-10-28T05:01:40.148Z,3.40
2023-10-28T05:06:41.538Z,6.88
2023-10-28T05:11:43.994Z,5.00
2023-10-28T05:16:45.425Z,6.20
2023-10-28T05:21:46.820Z,8.73
2023-10-28T05:26:48.353Z,4.50
2023-10-28T05:31:49.687Z,6.93
2023-10-28T05:36:51.730Z,7.20
2023-10-28T05:41:53.414Z,7.53
2023-10-28T05:46:56.712Z,5.80
2023-10-28T05:51:58.096Z,4.65
2023-10-28T05:56:59.422Z,13.10
2023-10-28T06:02:02.164Z,5.70
2023-10-28T06:07:03.656Z,7.28
2023-10-28T06:12:05.185Z,5.43
2023-10-28T06:17:06.567Z,4.88
2023-10-28T06:22:08.671Z,4.20
2023-10-28T06:27:09.980Z,6.83
2023-10-28T06:32:11.322Z,5.82
2023-10-28T06:37:12.694Z,6.33
2023-10-28T06:42:14.706Z,8.18
2023-10-28T06:47:16.107Z,6.57
2023-10-28T06:52:17.519Z,6.73
2023-10-28T06:57:18.805Z,6.15
2023-10-28T07:02:20.149Z,5.47
2023-10-28T07:07:21.491Z,4.38
2023-10-28T07:12:22.796Z,8.57
2023-10-28T07:17:24.185Z,7.70
2023-10-28T07:22:26.783Z,4.93
2023-10-28T07:27:28.420Z,6.60
2023-10-28T07:32:29.713Z,5.70
2023-10-28T07:37:33.302Z,7.28
2023-10-28T07:42:35.649Z,4.67
2023-10-28T07:47:37.506Z,4.90
2023-10-28T07:52:38.891Z,7.37
2023-10-28T07:57:40.175Z,5.60
2023-10-28T08:02:45.918Z,4.40
2023-10-28T08:07:48.171Z,4.53
2023-10-28T08:12:57.535Z,5.32
2023-10-28T08:17:58.866Z,6.38
2023-10-28T08:23:00.232Z,5.27
2023-10-28T08:28:02.435Z,6.75
2023-10-28T08:33:03.899Z,9.17
2023-10-28T08:38:08.294Z,9.77
2023-10-28T08:43:09.710Z,5.28
2023-10-28T08:48:11.891Z,9.10
2023-10-28T08:53:16.910Z,8.98
2023-10-28T08:58:19.996Z,4.80
2023-10-28T09:03:24.733Z,5.53
2023-10-28T09:08:26.170Z,10.65
2023-10-28T09:13:27.561Z,7.17
2023-10-28T09:18:37.154Z,7.63
2023-10-28T09:23:38.780Z,10.77
2023-10-28T09:28:43.669Z,5.87
2023-10-28T09:33:45.202Z,6.90
2023-10-28T09:38:47.484Z,6.25
2023-10-28T09:43:48.977Z,6.07
2023-10-28T09:48:50.867Z,7.88
2023-10-28T09:53:58.260Z,8.82
2023-10-28T09:59:03.485Z,7.93
2023-10-28T10:04:10.044Z,5.88
2023-10-28T10:09:14.129Z,5.43
2023-10-28T10:14:16.017Z,6.53
2023-10-28T10:19:28.381Z,8.00
2023-10-28T10:24:30.254Z,13.67
2023-10-28T10:29:41.706Z,8.07
2023-10-28T10:34:44.917Z,10.98
2023-10-28T10:39:49.132Z,8.13
2023-10-28T10:44:50.513Z,14.93
2023-10-28T10:49:52.804Z,13.18
2023-10-28T10:54:54.688Z,11.30
2023-10-28T10:59:56.039Z,10.13
2023-10-28T11:04:59.768Z,16.02
2023-10-28T11:10:01.120Z,14.13
2023-10-28T11:15:03.083Z,9.73
2023-10-28T11:20:05.973Z,9.20
2023-10-28T11:25:07.757Z,9.00
2023-10-28T11:30:09.293Z,9.20
2023-10-28T11:35:11.881Z,12.48
2023-10-28T11:40:13.226Z,12.67
2023-10-28T11:45:16.677Z,9.57
2023-10-28T11:50:17.996Z,8.00
2023-10-28T11:55:19.374Z,12.17
2023-10-28T12:00:20.735Z,14.67
2023-10-28T12:05:22.063Z,8.80
2023-10-28T12:10:23.479Z,9.83
2023-10-28T12:15:24.801Z,7.60
2023-10-28T12:20:26.109Z,10.60
2023-10-28T12:25:27.595Z,13.50
2023-10-28T12:30:29.014Z,7.67
2023-10-28T12:35:30.352Z,10.27
2023-10-28T12:40:33.242Z,18.80
2023-10-28T12:45:34.608Z,18.77
2023-10-28T12:50:35.932Z,12.73
2023-10-28T12:55:37.303Z,14.53
2023-10-28T13:00:39.495Z,16.43
2023-10-28T13:05:40.872Z,14.20
2023-10-28T13:10:42.255Z,10.70
2023-10-28T13:15:43.731Z,12.10
2023-10-28T13:20:45.084Z,14.40
2023-10-28T13:25:46.473Z,12.37
2023-10-28T13:30:47.830Z,11.17
2023-10-28T13:35:49.183Z,11.05
2023-10-28T13:40:50.545Z,12.47
2023-10-28T13:45:53.755Z,9.07
2023-10-28T13:50:55.149Z,10.85
2023-10-28T13:55:59.715Z,11.27
2023-10-28T14:01:05.441Z,9.20
2023-10-28T14:06:10.333Z,9.13
2023-10-28T14:11:11.785Z,6.70
2023-10-28T14:16:19.828Z,11.40
2023-10-28T14:21:23.711Z,9.25
2023-10-28T14:26:25.188Z,20.67
2023-10-28T14:31:26.963Z,9.02
2023-10-28T14:36:28.308Z,14.40
2023-10-28T14:41:34.897Z,14.63
2023-10-28T14:46:36.837Z,11.00
2023-10-28T14:51:38.477Z,10.98
2023-10-28T14:56:39.846Z,18.87
2023-10-28T15:01:41.224Z,14.13
2023-10-28T15:06:42.573Z,17.87
2023-10-28T15:11:44.487Z,36.63
2023-10-28T15:16:49.561Z,18.25
2023-10-28T15:21:51.171Z,16.30
2023-10-28T15:26:52.489Z,10.65
2023-10-28T15:31:54.200Z,13.45
2023-10-28T15:36:55.520Z,17.70
2023-10-28T15:41:56.936Z,17.00
2023-10-28T15:46:59.180Z,11.83
2023-10-28T15:52:00.501Z,14.43
2023-10-28T15:57:01.833Z,12.25
2023-10-28T16:02:03.316Z,14.50
2023-10-28T16:07:06.468Z,16.65
2023-10-28T16:12:08.423Z,13.63
2023-10-28T16:17:10.332Z,39.03
2023-10-28T16:22:11.970Z,14.88
2023-10-28T16:27:13.268Z,15.37
2023-10-28T16:32:14.652Z,17.50
2023-10-28T16:37:16.055Z,21.00
2023-10-28T16:42:17.450Z,13.27
2023-10-28T16:47:18.811Z,11.80
2023-10-28T16:52:20.146Z,14.13
2023-10-28T16:57:21.742Z,18.08
2023-10-28T17:02:23.337Z,13.25
2023-10-28T17:07:24.913Z,13.30
2023-10-28T17:12:26.305Z,14.85
2023-10-28T17:17:28.253Z,13.70
2023-10-28T17:22:29.587Z,13.20
2023-10-28T17:27:30.954Z,10.32
2023-10-28T17:32:32.533Z,12.10
2023-10-28T17:37:34.603Z,15.23
2023-10-28T17:42:36.053Z,16.33
2023-10-28T17:47:38.266Z,18.13
2023-10-28T17:52:39.570Z,13.25
2023-10-28T17:57:40.950Z,13.43
2023-10-28T18:02:42.397Z,9.65
2023-10-28T18:07:43.828Z,9.48
2023-10-28T18:12:45.178Z,9.67
2023-10-28T18:17:46.595Z,14.32
2023-10-28T18:22:47.968Z,11.30
2023-10-28T18:27:49.279Z,31.40
2023-10-28T18:32:50.764Z,10.57
2023-10-28T18:37:52.301Z,12.57
2023-10-28T18:42:54.472Z,7.82
2023-10-28T18:47:55.900Z,17.75
2023-10-28T18:52:57.210Z,15.37
2023-10-28T18:57:58.485Z,12.98
2023-10-28T19:02:59.874Z,16.67
2023-10-28T19:08:01.834Z,13.37
2023-10-28T19:13:03.537Z,14.75
2023-10-28T19:18:05.060Z,15.60
2023-10-28T19:23:06.490Z,11.60
2023-10-28T19:28:08.036Z,10.57
2023-10-28T19:33:09.860Z,14.47
2023-10-28T19:38:11.718Z,14.30
2023-10-28T19:43:13.047Z,10.52
2023-10-28T19:48:16.196Z,17.27
2023-10-28T19:53:18.239Z,8.93
2023-10-28T19:58:19.577Z,8.30
2023-10-28T20:03:23.769Z,9.65
2023-10-28T20:08:25.784Z,9.43
2023-10-28T20:13:27.937Z,10.73
2023-10-28T20:18:29.537Z,10.90
2023-10-28T20:23:31.268Z,10.77
2023-10-28T20:28:32.741Z,18.17
2023-10-28T20:33:34.268Z,32.30
2023-10-28T20:38:35.709Z,25.30
2023-10-28T20:43:37.020Z,18.60
2023-10-28T20:48:38.328Z,14.80
2023-10-28T20:53:39.727Z,8.95
2023-10-28T20:58:41.102Z,8.77
2023-10-28T21:03:42.562Z,7.50
2023-10-28T21:08:43.996Z,10.13
2023-10-28T21:13:46.557Z,10.40
2023-10-28T21:18:47.890Z,10.68
2023-10-28T21:23:49.242Z,8.30
2023-10-28T21:28:50.629Z,8.30
2023-10-28T21:33:57.420Z,6.07
2023-10-28T21:38:58.764Z,9.53
2023-10-28T21:44:00.061Z,7.95
2023-10-28T21:49:01.476Z,9.25
2023-10-28T21:54:04.212Z,10.03
2023-10-28T21:59:05.781Z,7.50
2023-10-28T22:04:07.177Z,8.40
2023-10-28T22:09:10.029Z,11.60
2023-10-28T22:14:11.344Z,10.65
2023-10-28T22:19:12.679Z,7.40
2023-10-28T22:24:13.962Z,11.13
2023-10-28T22:29:15.392Z,11.20
2023-10-28T22:34:16.714Z,10.77
2023-10-28T22:39:19.537Z,12.10
2023-10-28T22:44:21.018Z,19.27
2023-10-28T22:49:22.438Z,9.57
2023-10-28T22:54:23.792Z,14.85
2023-10-28T22:59:25.143Z,9.30
2023-10-28T23:04:26.634Z,12.60
2023-10-28T23:09:27.929Z,9.00
2023-10-28T23:14:29.312Z,18.33
2023-10-28T23:19:30.657Z,22.05
2023-10-28T23:24:32.586Z,9.37
2023-10-28T23:29:33.972Z,9.95
2023-10-28T23:34:35.671Z,5.80
2023-10-28T23:39:36.950Z,7.33
2023-10-28T23:44:38.416Z,8.32
2023-10-28T23:49:39.825Z,11.00
2023-10-28T23:54:41.737Z,8.70
2023-10-28T23:59:43.295Z,7.97
